sensor_id;sensor_type;location;lat;lon;timestamp;pressure;altitude;pressure_sealevel;temperature;humidity
49645;BME280;36494;50.730;-1.932;2023-05-11T00:00:39;101050.40;;;10.32;100.00
49645;BME280;36494;50.730;-1.932;2023-05-11T00:03:04;101053.98;;;10.29;100.00
49645;BME280;36494;50.730;-1.932;2023-05-11T00:05:29;101053.14;;;10.29;100.00
49645;BME280;36494;50.730;-1.932;2023-05-11T00:07:54;101049.84;;;10.30;100.00
49645;BME280;36494;50.730;-1.932;2023-05-11T00:10:20;101045.99;;;10.29;100.00
49645;BME280;36494;50.730;-1.932;2023-05-11T00:12:45;101045.68;;;10.30;100.00
49645;BME280;36494;50.730;-1.932;2023-05-11T00:15:10;101047.65;;;10.28;100.00
49645;BME280;36494;50.730;-1.932;2023-05-11T00:17:35;101048.40;;;10.25;100.00
49645;BME280;36494;50.730;-1.932;2023-05-11T00:20:01;101050.37;;;10.24;100.00
49645;BME280;36494;50.730;-1.932;2023-05-11T00:22:26;101048.07;;;10.20;100.00
49645;BME280;36494;50.730;-1.932;2023-05-11T00:24:51;101049.55;;;10.17;100.00
49645;BME280;36494;50.730;-1.932;2023-05-11T00:27:17;101049.90;;;10.16;100.00
49645;BME280;36494;50.730;-1.932;2023-05-11T00:29:42;101048.22;;;10.14;100.00
49645;BME280;36494;50.730;-1.932;2023-05-11T00:32:08;101047.22;;;10.10;100.00
49645;BME280;36494;50.730;-1.932;2023-05-11T00:34:33;101044.13;;;10.11;100.00
49645;BME280;36494;50.730;-1.932;2023-05-11T00:36:58;101044.92;;;10.07;100.00
49645;BME280;36494;50.730;-1.932;2023-05-11T00:39:24;101046.44;;;10.05;100.00
49645;BME280;36494;50.730;-1.932;2023-05-11T00:41:49;101045.41;;;10.06;100.00
49645;BME280;36494;50.730;-1.932;2023-05-11T00:44:14;101047.29;;;10.07;100.00
49645;BME280;36494;50.730;-1.932;2023-05-11T00:46:40;101050.49;;;10.08;100.00
49645;BME280;36494;50.730;-1.932;2023-05-11T00:49:05;101050.11;;;10.06;100.00
49645;BME280;36494;50.730;-1.932;2023-05-11T00:51:30;101051.07;;;10.06;100.00
49645;BME280;36494;50.730;-1.932;2023-05-11T00:53:55;101048.14;;;10.07;100.00
49645;BME280;36494;50.730;-1.932;2023-05-11T00:56:21;101046.05;;;10.05;100.00
49645;BME280;36494;50.730;-1.932;2023-05-11T00:58:47;101042.67;;;10.06;100.00
49645;BME280;36494;50.730;-1.932;2023-05-11T01:01:12;101043.22;;;10.00;100.00
49645;BME280;36494;50.730;-1.932;2023-05-11T01:03:37;101048.11;;;10.02;100.00
49645;BME280;36494;50.730;-1.932;2023-05-11T01:06:08;101048.24;;;10.02;100.00
49645;BME280;36494;50.730;-1.932;2023-05-11T01:08:34;101046.59;;;10.05;100.00
49645;BME280;36494;50.730;-1.932;2023-05-11T01:10:59;101045.51;;;10.07;100.00
49645;BME280;36494;50.730;-1.932;2023-05-11T01:13:26;101043.32;;;10.04;100.00
49645;BME280;36494;50.730;-1.932;2023-05-11T01:15:49;101039.79;;;10.02;100.00
49645;BME280;36494;50.730;-1.932;2023-05-11T01:18:17;101038.38;;;10.08;100.00
49645;BME280;36494;50.730;-1.932;2023-05-11T01:20:37;101036.34;;;10.10;100.00
49645;BME280;36494;50.730;-1.932;2023-05-11T01:23:16;101033.28;;;10.13;100.00
49645;BME280;36494;50.730;-1.932;2023-05-11T01:25:41;101028.42;;;10.16;100.00
49645;BME280;36494;50.730;-1.932;2023-05-11T01:28:12;101028.75;;;10.17;100.00
49645;BME280;36494;50.730;-1.932;2023-05-11T01:30:27;101028.28;;;10.19;100.00
49645;BME280;36494;50.730;-1.932;2023-05-11T01:32:45;101030.64;;;10.18;100.00
49645;BME280;36494;50.730;-1.932;2023-05-11T01:35:16;101032.82;;;10.19;100.00
49645;BME280;36494;50.730;-1.932;2023-05-11T01:37:40;101029.30;;;10.22;100.00
49645;BME280;36494;50.730;-1.932;2023-05-11T01:40:04;101025.97;;;10.23;100.00
49645;BME280;36494;50.730;-1.932;2023-05-11T01:42:34;101023.29;;;10.24;100.00
49645;BME280;36494;50.730;-1.932;2023-05-11T01:44:54;101022.35;;;10.24;100.00
49645;BME280;36494;50.730;-1.932;2023-05-11T01:47:20;101025.28;;;10.24;100.00
49645;BME280;36494;50.730;-1.932;2023-05-11T01:49:44;101025.10;;;10.24;100.00
49645;BME280;36494;50.730;-1.932;2023-05-11T01:52:10;101025.02;;;10.23;100.00
49645;BME280;36494;50.730;-1.932;2023-05-11T01:54:35;101025.84;;;10.22;100.00
49645;BME280;36494;50.730;-1.932;2023-05-11T01:57:01;101026.74;;;10.24;100.00
49645;BME280;36494;50.730;-1.932;2023-05-11T01:59:26;101027.73;;;10.18;100.00
49645;BME280;36494;50.730;-1.932;2023-05-11T02:01:51;101024.93;;;10.23;100.00
49645;BME280;36494;50.730;-1.932;2023-05-11T02:04:17;101027.90;;;10.22;100.00
49645;BME280;36494;50.730;-1.932;2023-05-11T02:06:42;101027.96;;;10.24;100.00
49645;BME280;36494;50.730;-1.932;2023-05-11T02:09:09;101027.47;;;10.24;100.00
49645;BME280;36494;50.730;-1.932;2023-05-11T02:11:33;101025.16;;;10.25;100.00
49645;BME280;36494;50.730;-1.932;2023-05-11T02:13:58;101026.16;;;10.26;100.00
49645;BME280;36494;50.730;-1.932;2023-05-11T02:16:23;101028.19;;;10.22;100.00
49645;BME280;36494;50.730;-1.932;2023-05-11T02:18:49;101029.24;;;10.22;100.00
49645;BME280;36494;50.730;-1.932;2023-05-11T02:21:14;101029.81;;;10.22;100.00
49645;BME280;36494;50.730;-1.932;2023-05-11T02:23:39;101030.10;;;10.20;100.00
49645;BME280;36494;50.730;-1.932;2023-05-11T02:26:05;101027.32;;;10.23;100.00
49645;BME280;36494;50.730;-1.932;2023-05-11T02:28:29;101029.37;;;10.22;100.00
49645;BME280;36494;50.730;-1.932;2023-05-11T02:30:56;101029.91;;;10.23;100.00
49645;BME280;36494;50.730;-1.932;2023-05-11T02:33:24;101030.44;;;10.22;100.00
49645;BME280;36494;50.730;-1.932;2023-05-11T02:35:46;101031.96;;;10.23;100.00
49645;BME280;36494;50.730;-1.932;2023-05-11T02:38:11;101031.62;;;10.23;100.00
49645;BME280;36494;50.730;-1.932;2023-05-11T02:40:39;101031.86;;;10.22;100.00
49645;BME280;36494;50.730;-1.932;2023-05-11T02:43:07;101028.88;;;10.21;100.00
49645;BME280;36494;50.730;-1.932;2023-05-11T02:45:29;101029.10;;;10.21;100.00
49645;BME280;36494;50.730;-1.932;2023-05-11T02:47:54;101031.08;;;10.21;100.00
49645;BME280;36494;50.730;-1.932;2023-05-11T02:50:17;101029.21;;;10.18;100.00
49645;BME280;36494;50.730;-1.932;2023-05-11T02:52:44;101028.31;;;10.20;100.00
49645;BME280;36494;50.730;-1.932;2023-05-11T02:55:08;101030.08;;;10.19;100.00
49645;BME280;36494;50.730;-1.932;2023-05-11T02:57:33;101033.20;;;10.22;100.00
49645;BME280;36494;50.730;-1.932;2023-05-11T02:59:59;101032.63;;;10.25;100.00
49645;BME280;36494;50.730;-1.932;2023-05-11T03:02:24;101035.28;;;10.24;100.00
49645;BME280;36494;50.730;-1.932;2023-05-11T03:04:49;101035.56;;;10.26;100.00
49645;BME280;36494;50.730;-1.932;2023-05-11T03:07:15;101035.44;;;10.27;100.00
49645;BME280;36494;50.730;-1.932;2023-05-11T03:09:40;101032.08;;;10.28;100.00
49645;BME280;36494;50.730;-1.932;2023-05-11T03:12:06;101032.62;;;10.30;100.00
49645;BME280;36494;50.730;-1.932;2023-05-11T03:14:32;101032.21;;;10.31;100.00
49645;BME280;36494;50.730;-1.932;2023-05-11T03:16:56;101031.28;;;10.32;100.00
49645;BME280;36494;50.730;-1.932;2023-05-11T03:19:21;101028.64;;;10.34;100.00
49645;BME280;36494;50.730;-1.932;2023-05-11T03:21:46;101030.00;;;10.36;100.00
49645;BME280;36494;50.730;-1.932;2023-05-11T03:24:12;101032.18;;;10.37;100.00
49645;BME280;36494;50.730;-1.932;2023-05-11T03:26:37;101036.38;;;10.38;100.00
49645;BME280;36494;50.730;-1.932;2023-05-11T03:29:03;101036.30;;;10.38;100.00
49645;BME280;36494;50.730;-1.932;2023-05-11T03:31:28;101034.59;;;10.38;100.00
49645;BME280;36494;50.730;-1.932;2023-05-11T03:33:53;101030.94;;;10.37;100.00
49645;BME280;36494;50.730;-1.932;2023-05-11T03:36:20;101031.16;;;10.39;100.00
49645;BME280;36494;50.730;-1.932;2023-05-11T03:38:45;101031.41;;;10.38;100.00
49645;BME280;36494;50.730;-1.932;2023-05-11T03:41:12;101029.42;;;10.39;100.00
49645;BME280;36494;50.730;-1.932;2023-05-11T03:43:37;101031.13;;;10.39;100.00
49645;BME280;36494;50.730;-1.932;2023-05-11T03:46:02;101028.73;;;10.39;100.00
49645;BME280;36494;50.730;-1.932;2023-05-11T03:48:27;101028.51;;;10.40;100.00
49645;BME280;36494;50.730;-1.932;2023-05-11T03:50:53;101028.43;;;10.40;100.00
49645;BME280;36494;50.730;-1.932;2023-05-11T03:53:18;101030.06;;;10.40;100.00
49645;BME280;36494;50.730;-1.932;2023-05-11T03:55:44;101029.99;;;10.38;100.00
49645;BME280;36494;50.730;-1.932;2023-05-11T03:58:10;101026.62;;;10.38;100.00
49645;BME280;36494;50.730;-1.932;2023-05-11T04:00:38;101026.53;;;10.37;100.00
49645;BME280;36494;50.730;-1.932;2023-05-11T04:03:03;101024.66;;;10.38;100.00
49645;BME280;36494;50.730;-1.932;2023-05-11T04:05:26;101029.99;;;10.41;100.00
49645;BME280;36494;50.730;-1.932;2023-05-11T04:07:51;101026.53;;;10.42;100.00
49645;BME280;36494;50.730;-1.932;2023-05-11T04:10:16;101025.27;;;10.42;100.00
49645;BME280;36494;50.730;-1.932;2023-05-11T04:12:41;101026.14;;;10.41;100.00
49645;BME280;36494;50.730;-1.932;2023-05-11T04:15:07;101026.53;;;10.43;100.00
49645;BME280;36494;50.730;-1.932;2023-05-11T04:17:32;101022.81;;;10.43;100.00
49645;BME280;36494;50.730;-1.932;2023-05-11T04:19:57;101022.32;;;10.44;100.00
49645;BME280;36494;50.730;-1.932;2023-05-11T04:22:23;101024.17;;;10.45;100.00
49645;BME280;36494;50.730;-1.932;2023-05-11T04:24:48;101023.37;;;10.44;100.00
49645;BME280;36494;50.730;-1.932;2023-05-11T04:27:13;101021.12;;;10.46;100.00
49645;BME280;36494;50.730;-1.932;2023-05-11T04:29:39;101017.79;;;10.47;100.00
49645;BME280;36494;50.730;-1.932;2023-05-11T04:32:04;101016.03;;;10.47;100.00
49645;BME280;36494;50.730;-1.932;2023-05-11T04:34:29;101016.68;;;10.50;100.00
49645;BME280;36494;50.730;-1.932;2023-05-11T04:36:55;101020.67;;;10.50;100.00
49645;BME280;36494;50.730;-1.932;2023-05-11T04:39:21;101025.43;;;10.48;100.00
49645;BME280;36494;50.730;-1.932;2023-05-11T04:41:47;101026.65;;;10.50;100.00
49645;BME280;36494;50.730;-1.932;2023-05-11T04:44:12;101027.39;;;10.49;100.00
49645;BME280;36494;50.730;-1.932;2023-05-11T04:46:38;101027.65;;;10.51;100.00
49645;BME280;36494;50.730;-1.932;2023-05-11T04:49:04;101030.80;;;10.53;100.00
49645;BME280;36494;50.730;-1.932;2023-05-11T04:51:29;101033.95;;;10.52;100.00
49645;BME280;36494;50.730;-1.932;2023-05-11T04:53:55;101036.48;;;10.51;100.00
49645;BME280;36494;50.730;-1.932;2023-05-11T04:56:21;101036.43;;;10.54;100.00
49645;BME280;36494;50.730;-1.932;2023-05-11T04:58:47;101037.73;;;10.55;100.00
49645;BME280;36494;50.730;-1.932;2023-05-11T05:01:12;101038.02;;;10.56;100.00
49645;BME280;36494;50.730;-1.932;2023-05-11T05:03:37;101038.99;;;10.57;100.00
49645;BME280;36494;50.730;-1.932;2023-05-11T05:06:03;101039.23;;;10.57;100.00
49645;BME280;36494;50.730;-1.932;2023-05-11T05:08:28;101042.78;;;10.58;100.00
49645;BME280;36494;50.730;-1.932;2023-05-11T05:10:53;101046.76;;;10.58;100.00
49645;BME280;36494;50.730;-1.932;2023-05-11T05:13:19;101046.96;;;10.57;100.00
49645;BME280;36494;50.730;-1.932;2023-05-11T05:15:44;101049.91;;;10.57;100.00
49645;BME280;36494;50.730;-1.932;2023-05-11T05:18:09;101055.82;;;10.56;100.00
49645;BME280;36494;50.730;-1.932;2023-05-11T05:20:35;101056.26;;;10.56;100.00
49645;BME280;36494;50.730;-1.932;2023-05-11T05:23:00;101059.37;;;10.58;100.00
49645;BME280;36494;50.730;-1.932;2023-05-11T05:25:25;101060.20;;;10.59;100.00
49645;BME280;36494;50.730;-1.932;2023-05-11T05:27:50;101063.16;;;10.60;100.00
49645;BME280;36494;50.730;-1.932;2023-05-11T05:30:16;101068.85;;;10.61;100.00
49645;BME280;36494;50.730;-1.932;2023-05-11T05:32:41;101072.03;;;10.61;100.00
49645;BME280;36494;50.730;-1.932;2023-05-11T05:35:07;101070.97;;;10.62;100.00
49645;BME280;36494;50.730;-1.932;2023-05-11T05:37:32;101071.78;;;10.64;100.00
49645;BME280;36494;50.730;-1.932;2023-05-11T05:39:57;101071.99;;;10.64;100.00
49645;BME280;36494;50.730;-1.932;2023-05-11T05:42:23;101074.68;;;10.65;100.00
49645;BME280;36494;50.730;-1.932;2023-05-11T05:44:48;101072.84;;;10.66;100.00
49645;BME280;36494;50.730;-1.932;2023-05-11T05:47:14;101069.76;;;10.70;100.00
49645;BME280;36494;50.730;-1.932;2023-05-11T05:49:39;101069.26;;;10.69;100.00
49645;BME280;36494;50.730;-1.932;2023-05-11T05:52:05;101067.43;;;10.71;100.00
49645;BME280;36494;50.730;-1.932;2023-05-11T05:54:30;101064.67;;;10.70;100.00
49645;BME280;36494;50.730;-1.932;2023-05-11T05:56:56;101066.79;;;10.70;100.00
49645;BME280;36494;50.730;-1.932;2023-05-11T05:59:22;101063.47;;;10.69;100.00
49645;BME280;36494;50.730;-1.932;2023-05-11T06:01:48;101059.35;;;10.72;100.00
49645;BME280;36494;50.730;-1.932;2023-05-11T06:04:13;101058.19;;;10.74;100.00
49645;BME280;36494;50.730;-1.932;2023-05-11T06:06:38;101059.88;;;10.80;100.00
49645;BME280;36494;50.730;-1.932;2023-05-11T06:09:04;101062.03;;;10.80;100.00
49645;BME280;36494;50.730;-1.932;2023-05-11T06:11:30;101061.47;;;10.82;100.00
49645;BME280;36494;50.730;-1.932;2023-05-11T06:13:55;101062.15;;;10.84;100.00
49645;BME280;36494;50.730;-1.932;2023-05-11T06:16:21;101062.60;;;10.83;100.00
49645;BME280;36494;50.730;-1.932;2023-05-11T06:18:47;101062.96;;;10.90;100.00
49645;BME280;36494;50.730;-1.932;2023-05-11T06:21:12;101065.20;;;10.97;100.00
49645;BME280;36494;50.730;-1.932;2023-05-11T06:23:38;101070.15;;;11.02;100.00
49645;BME280;36494;50.730;-1.932;2023-05-11T06:26:03;101073.33;;;11.07;100.00
49645;BME280;36494;50.730;-1.932;2023-05-11T06:28:28;101072.71;;;11.10;100.00
49645;BME280;36494;50.730;-1.932;2023-05-11T06:30:55;101075.58;;;11.16;100.00
49645;BME280;36494;50.730;-1.932;2023-05-11T06:33:19;101076.92;;;11.19;100.00
49645;BME280;36494;50.730;-1.932;2023-05-11T06:35:45;101077.33;;;11.17;100.00
49645;BME280;36494;50.730;-1.932;2023-05-11T06:38:11;101076.77;;;11.25;100.00
49645;BME280;36494;50.730;-1.932;2023-05-11T06:40:37;101075.07;;;11.24;100.00
49645;BME280;36494;50.730;-1.932;2023-05-11T06:43:02;101077.77;;;11.32;100.00
49645;BME280;36494;50.730;-1.932;2023-05-11T06:45:27;101080.89;;;11.39;100.00
49645;BME280;36494;50.730;-1.932;2023-05-11T06:47:53;101080.02;;;11.42;100.00
49645;BME280;36494;50.730;-1.932;2023-05-11T06:50:18;101077.19;;;11.48;100.00
49645;BME280;36494;50.730;-1.932;2023-05-11T06:52:43;101077.24;;;11.50;100.00
49645;BME280;36494;50.730;-1.932;2023-05-11T06:55:11;101082.42;;;11.49;100.00
49645;BME280;36494;50.730;-1.932;2023-05-11T06:57:34;101081.60;;;11.59;100.00
49645;BME280;36494;50.730;-1.932;2023-05-11T06:59:59;101082.94;;;11.67;100.00
49645;BME280;36494;50.730;-1.932;2023-05-11T07:02:25;101086.18;;;11.73;100.00
49645;BME280;36494;50.730;-1.932;2023-05-11T07:04:50;101086.30;;;11.78;100.00
49645;BME280;36494;50.730;-1.932;2023-05-11T07:07:15;101086.08;;;11.82;100.00
49645;BME280;36494;50.730;-1.932;2023-05-11T07:09:41;101091.37;;;11.84;100.00
49645;BME280;36494;50.730;-1.932;2023-05-11T07:12:06;101089.12;;;11.87;100.00
49645;BME280;36494;50.730;-1.932;2023-05-11T07:14:31;101089.21;;;11.89;100.00
49645;BME280;36494;50.730;-1.932;2023-05-11T07:16:56;101088.35;;;11.95;100.00
49645;BME280;36494;50.730;-1.932;2023-05-11T07:19:22;101089.36;;;11.95;100.00
49645;BME280;36494;50.730;-1.932;2023-05-11T07:21:47;101091.96;;;12.04;100.00
49645;BME280;36494;50.730;-1.932;2023-05-11T07:24:12;101093.90;;;12.12;100.00
49645;BME280;36494;50.730;-1.932;2023-05-11T07:26:37;101095.12;;;12.13;100.00
49645;BME280;36494;50.730;-1.932;2023-05-11T07:29:03;101095.74;;;12.16;100.00
49645;BME280;36494;50.730;-1.932;2023-05-11T07:31:29;101092.96;;;12.20;100.00
49645;BME280;36494;50.730;-1.932;2023-05-11T07:33:53;101094.49;;;12.29;100.00
49645;BME280;36494;50.730;-1.932;2023-05-11T07:36:18;101091.93;;;12.32;100.00
49645;BME280;36494;50.730;-1.932;2023-05-11T07:38:44;101096.66;;;12.34;100.00
49645;BME280;36494;50.730;-1.932;2023-05-11T07:41:09;101092.17;;;12.35;100.00
49645;BME280;36494;50.730;-1.932;2023-05-11T07:43:35;101093.84;;;12.36;100.00
49645;BME280;36494;50.730;-1.932;2023-05-11T07:46:00;101098.38;;;12.32;100.00
49645;BME280;36494;50.730;-1.932;2023-05-11T07:48:25;101101.04;;;12.29;100.00
49645;BME280;36494;50.730;-1.932;2023-05-11T07:50:51;101098.94;;;12.30;100.00
49645;BME280;36494;50.730;-1.932;2023-05-11T07:53:16;101100.42;;;12.32;100.00
49645;BME280;36494;50.730;-1.932;2023-05-11T07:55:41;101101.72;;;12.32;100.00
49645;BME280;36494;50.730;-1.932;2023-05-11T07:58:07;101101.81;;;12.39;100.00
49645;BME280;36494;50.730;-1.932;2023-05-11T08:00:32;101102.05;;;12.36;100.00
49645;BME280;36494;50.730;-1.932;2023-05-11T08:02:57;101101.90;;;12.36;100.00
49645;BME280;36494;50.730;-1.932;2023-05-11T08:05:22;101103.52;;;12.40;100.00
49645;BME280;36494;50.730;-1.932;2023-05-11T08:07:47;101102.13;;;12.42;100.00
49645;BME280;36494;50.730;-1.932;2023-05-11T08:10:13;101099.05;;;12.49;100.00
49645;BME280;36494;50.730;-1.932;2023-05-11T08:12:38;101099.73;;;12.54;100.00
49645;BME280;36494;50.730;-1.932;2023-05-11T08:15:04;101096.78;;;12.57;100.00
49645;BME280;36494;50.730;-1.932;2023-05-11T08:17:29;101099.14;;;12.61;100.00
49645;BME280;36494;50.730;-1.932;2023-05-11T08:19:54;101094.58;;;12.59;100.00
49645;BME280;36494;50.730;-1.932;2023-05-11T08:22:20;101100.43;;;12.68;100.00
49645;BME280;36494;50.730;-1.932;2023-05-11T08:24:45;101098.65;;;12.67;100.00
49645;BME280;36494;50.730;-1.932;2023-05-11T08:27:10;101100.05;;;12.77;100.00
49645;BME280;36494;50.730;-1.932;2023-05-11T08:29:36;101103.05;;;12.81;100.00
49645;BME280;36494;50.730;-1.932;2023-05-11T08:32:02;101096.16;;;12.87;100.00
49645;BME280;36494;50.730;-1.932;2023-05-11T08:34:27;101094.87;;;13.00;100.00
49645;BME280;36494;50.730;-1.932;2023-05-11T08:36:52;101096.00;;;13.10;100.00
49645;BME280;36494;50.730;-1.932;2023-05-11T08:39:17;101093.68;;;13.19;100.00
49645;BME280;36494;50.730;-1.932;2023-05-11T08:41:45;101094.73;;;13.35;100.00
49645;BME280;36494;50.730;-1.932;2023-05-11T08:44:09;101098.01;;;13.42;100.00
49645;BME280;36494;50.730;-1.932;2023-05-11T08:46:35;101103.54;;;13.44;100.00
49645;BME280;36494;50.730;-1.932;2023-05-11T08:48:59;101106.57;;;13.40;100.00
49645;BME280;36494;50.730;-1.932;2023-05-11T08:51:25;101107.63;;;13.42;100.00
49645;BME280;36494;50.730;-1.932;2023-05-11T08:53:51;101109.57;;;13.46;100.00
49645;BME280;36494;50.730;-1.932;2023-05-11T08:56:16;101106.65;;;13.51;100.00
49645;BME280;36494;50.730;-1.932;2023-05-11T08:58:41;101108.15;;;13.61;100.00
49645;BME280;36494;50.730;-1.932;2023-05-11T09:01:09;101107.02;;;13.62;100.00
49645;BME280;36494;50.730;-1.932;2023-05-11T09:03:34;101107.31;;;13.69;100.00
49645;BME280;36494;50.730;-1.932;2023-05-11T09:05:58;101109.69;;;13.78;100.00
49645;BME280;36494;50.730;-1.932;2023-05-11T09:08:23;101104.82;;;13.77;100.00
49645;BME280;36494;50.730;-1.932;2023-05-11T09:10:48;101104.23;;;13.89;100.00
49645;BME280;36494;50.730;-1.932;2023-05-11T09:13:13;101102.62;;;13.98;100.00
49645;BME280;36494;50.730;-1.932;2023-05-11T09:15:39;101100.17;;;14.19;100.00
49645;BME280;36494;50.730;-1.932;2023-05-11T09:18:04;101100.26;;;14.27;100.00
49645;BME280;36494;50.730;-1.932;2023-05-11T09:20:31;101104.57;;;14.22;100.00
49645;BME280;36494;50.730;-1.932;2023-05-11T09:22:56;101105.78;;;14.18;100.00
49645;BME280;36494;50.730;-1.932;2023-05-11T09:25:23;101108.33;;;14.29;100.00
49645;BME280;36494;50.730;-1.932;2023-05-11T09:27:47;101105.72;;;14.35;100.00
49645;BME280;36494;50.730;-1.932;2023-05-11T09:30:15;101106.53;;;14.49;100.00
49645;BME280;36494;50.730;-1.932;2023-05-11T09:32:48;101104.17;;;14.44;100.00
49645;BME280;36494;50.730;-1.932;2023-05-11T09:35:18;101106.75;;;14.49;100.00
49645;BME280;36494;50.730;-1.932;2023-05-11T09:37:28;101109.19;;;14.48;100.00
49645;BME280;36494;50.730;-1.932;2023-05-11T09:39:54;101111.30;;;14.48;100.00
49645;BME280;36494;50.730;-1.932;2023-05-11T09:42:20;101110.62;;;14.48;100.00
49645;BME280;36494;50.730;-1.932;2023-05-11T09:44:46;101111.80;;;14.64;100.00
49645;BME280;36494;50.730;-1.932;2023-05-11T09:47:12;101114.24;;;14.75;100.00
49645;BME280;36494;50.730;-1.932;2023-05-11T09:49:35;101112.38;;;14.88;100.00
49645;BME280;36494;50.730;-1.932;2023-05-11T09:52:00;101111.11;;;15.10;100.00
49645;BME280;36494;50.730;-1.932;2023-05-11T09:54:26;101107.40;;;15.39;100.00
49645;BME280;36494;50.730;-1.932;2023-05-11T09:56:53;101102.19;;;15.74;100.00
49645;BME280;36494;50.730;-1.932;2023-05-11T10:01:42;101099.08;;;16.28;100.00
49645;BME280;36494;50.730;-1.932;2023-05-11T10:04:08;101102.78;;;16.41;100.00
49645;BME280;36494;50.730;-1.932;2023-05-11T10:06:44;101103.80;;;15.89;100.00
49645;BME280;36494;50.730;-1.932;2023-05-11T10:09:07;101102.33;;;15.71;100.00
49645;BME280;36494;50.730;-1.932;2023-05-11T10:11:23;101102.46;;;15.70;100.00
49645;BME280;36494;50.730;-1.932;2023-05-11T10:13:49;101102.49;;;15.54;100.00
49645;BME280;36494;50.730;-1.932;2023-05-11T10:16:15;101100.84;;;15.60;100.00
49645;BME280;36494;50.730;-1.932;2023-05-11T10:18:40;101099.60;;;15.49;100.00
49645;BME280;36494;50.730;-1.932;2023-05-11T10:21:06;101097.11;;;15.42;100.00
49645;BME280;36494;50.730;-1.932;2023-05-11T10:23:30;101101.04;;;15.27;100.00
49645;BME280;36494;50.730;-1.932;2023-05-11T10:25:56;101103.39;;;15.21;100.00
49645;BME280;36494;50.730;-1.932;2023-05-11T10:28:22;101104.28;;;15.15;100.00
49645;BME280;36494;50.730;-1.932;2023-05-11T10:30:47;101107.06;;;15.21;100.00
49645;BME280;36494;50.730;-1.932;2023-05-11T10:33:12;101103.80;;;15.18;100.00
49645;BME280;36494;50.730;-1.932;2023-05-11T10:35:37;101104.75;;;15.17;100.00
49645;BME280;36494;50.730;-1.932;2023-05-11T10:38:03;101104.15;;;15.21;100.00
49645;BME280;36494;50.730;-1.932;2023-05-11T10:40:28;101104.60;;;15.31;100.00
49645;BME280;36494;50.730;-1.932;2023-05-11T10:45:21;101101.92;;;15.25;100.00
49645;BME280;36494;50.730;-1.932;2023-05-11T10:47:59;101101.03;;;15.31;100.00
49645;BME280;36494;50.730;-1.932;2023-05-11T10:50:17;101099.31;;;15.29;100.00
49645;BME280;36494;50.730;-1.932;2023-05-11T10:52:51;101100.22;;;15.27;100.00
49645;BME280;36494;50.730;-1.932;2023-05-11T10:55:08;101104.11;;;15.41;100.00
49645;BME280;36494;50.730;-1.932;2023-05-11T10:57:36;101098.69;;;15.54;100.00
49645;BME280;36494;50.730;-1.932;2023-05-11T11:00:05;101098.08;;;15.55;100.00
49645;BME280;36494;50.730;-1.932;2023-05-11T11:02:16;101095.17;;;15.61;100.00
49645;BME280;36494;50.730;-1.932;2023-05-11T11:04:45;101094.16;;;15.86;100.00
49645;BME280;36494;50.730;-1.932;2023-05-11T11:07:07;101093.68;;;16.26;100.00
49645;BME280;36494;50.730;-1.932;2023-05-11T11:12:07;101083.06;;;16.98;100.00
49645;BME280;36494;50.730;-1.932;2023-05-11T11:14:22;101082.34;;;17.13;100.00
49645;BME280;36494;50.730;-1.932;2023-05-11T11:19:34;101078.13;;;17.07;100.00
49645;BME280;36494;50.730;-1.932;2023-05-11T11:21:39;101074.97;;;17.43;100.00
49645;BME280;36494;50.730;-1.932;2023-05-11T11:24:04;101071.97;;;17.87;100.00
49645;BME280;36494;50.730;-1.932;2023-05-11T11:26:45;101068.10;;;17.89;100.00
49645;BME280;36494;50.730;-1.932;2023-05-11T11:29:07;101063.98;;;18.29;100.00
49645;BME280;36494;50.730;-1.932;2023-05-11T11:31:23;101060.52;;;18.46;100.00
49645;BME280;36494;50.730;-1.932;2023-05-11T11:33:44;101059.26;;;18.84;100.00
49645;BME280;36494;50.730;-1.932;2023-05-11T11:36:09;101055.91;;;19.03;100.00
49645;BME280;36494;50.730;-1.932;2023-05-11T11:41:00;101052.09;;;18.87;100.00
49645;BME280;36494;50.730;-1.932;2023-05-11T11:43:27;101048.69;;;18.81;100.00
49645;BME280;36494;50.730;-1.932;2023-05-11T11:45:52;101050.52;;;19.01;100.00
49645;BME280;36494;50.730;-1.932;2023-05-11T11:48:20;101048.48;;;19.05;100.00
49645;BME280;36494;50.730;-1.932;2023-05-11T11:50:42;101048.38;;;18.98;100.00
49645;BME280;36494;50.730;-1.932;2023-05-11T11:53:09;101046.25;;;18.89;100.00
49645;BME280;36494;50.730;-1.932;2023-05-11T11:55:46;101045.65;;;19.00;100.00
49645;BME280;36494;50.730;-1.932;2023-05-11T11:57:56;101042.37;;;18.86;100.00
49645;BME280;36494;50.730;-1.932;2023-05-11T12:00:22;101040.32;;;18.90;100.00
49645;BME280;36494;50.730;-1.932;2023-05-11T12:02:47;101042.88;;;18.89;100.00
49645;BME280;36494;50.730;-1.932;2023-05-11T12:05:13;101041.67;;;18.80;100.00
49645;BME280;36494;50.730;-1.932;2023-05-11T12:07:40;101045.08;;;18.73;100.00
49645;BME280;36494;50.730;-1.932;2023-05-11T12:10:03;101040.86;;;18.62;100.00
49645;BME280;36494;50.730;-1.932;2023-05-11T12:12:29;101041.91;;;18.69;100.00
49645;BME280;36494;50.730;-1.932;2023-05-11T12:14:53;101039.61;;;18.62;100.00
49645;BME280;36494;50.730;-1.932;2023-05-11T12:17:24;101040.67;;;18.58;100.00
49645;BME280;36494;50.730;-1.932;2023-05-11T12:19:44;101047.75;;;18.27;100.00
49645;BME280;36494;50.730;-1.932;2023-05-11T12:22:09;101048.16;;;18.27;100.00
49645;BME280;36494;50.730;-1.932;2023-05-11T12:24:34;101050.97;;;18.04;100.00
49645;BME280;36494;50.730;-1.932;2023-05-11T12:27:02;101053.91;;;17.95;100.00
49645;BME280;36494;50.730;-1.932;2023-05-11T12:29:24;101051.90;;;17.94;100.00
49645;BME280;36494;50.730;-1.932;2023-05-11T12:31:50;101059.01;;;17.77;100.00